sensor_id;sensor_type;location;lat;lon;timestamp;pressure;altitude;pressure_sealevel;temperature;humidity
7264;BME280;3673;52.480;13.348;2023-04-03T00:01:40;102606.97;;;8.06;43.07
7264;BME280;3673;52.480;13.348;2023-04-03T00:04:07;102607.47;;;7.98;43.01
7264;BME280;3673;52.480;13.348;2023-04-03T00:06:34;102594.19;;;7.92;43.35
7264;BME280;3673;52.480;13.348;2023-04-03T00:09:01;102600.88;;;7.85;43.41
7264;BME280;3673;52.480;13.348;2023-04-03T00:11:29;102613.56;;;7.98;43.26
7264;BME280;3673;52.480;13.348;2023-04-03T00:13:56;102603.44;;;7.84;43.47
7264;BME280;3673;52.480;13.348;2023-04-03T00:16:23;102602.44;;;7.80;43.01
7264;BME280;3673;52.480;13.348;2023-04-03T00:18:49;102602.56;;;7.83;43.10
7264;BME280;3673;52.480;13.348;2023-04-03T00:21:16;102599.97;;;7.62;43.19
7264;BME280;3673;52.480;13.348;2023-04-03T00:23:43;102603.03;;;8.17;42.75
7264;BME280;3673;52.480;13.348;2023-04-03T00:26:09;102612.09;;;7.83;42.85
7264;BME280;3673;52.480;13.348;2023-04-03T00:28:38;102609.28;;;7.78;43.54
7264;BME280;3673;52.480;13.348;2023-04-03T00:31:04;102609.09;;;7.32;43.92
7264;BME280;3673;52.480;13.348;2023-04-03T00:33:31;102607.25;;;7.71;43.41
7264;BME280;3673;52.480;13.348;2023-04-03T00:35:58;102608.44;;;7.57;43.50
7264;BME280;3673;52.480;13.348;2023-04-03T00:38:25;102607.75;;;7.83;42.99
7264;BME280;3673;52.480;13.348;2023-04-03T00:40:51;102603.44;;;7.84;43.04
7264;BME280;3673;52.480;13.348;2023-04-03T00:43:21;102600.91;;;7.64;42.99
7264;BME280;3673;52.480;13.348;2023-04-03T00:45:51;102616.19;;;7.77;43.02
7264;BME280;3673;52.480;13.348;2023-04-03T00:48:21;102608.56;;;8.03;43.12
7264;BME280;3673;52.480;13.348;2023-04-03T00:50:49;102603.03;;;7.95;43.15
7264;BME280;3673;52.480;13.348;2023-04-03T00:53:19;102611.53;;;7.91;43.12
7264;BME280;3673;52.480;13.348;2023-04-03T00:55:49;102601.59;;;7.81;42.88
7264;BME280;3673;52.480;13.348;2023-04-03T00:58:19;102607.00;;;7.86;42.89
7264;BME280;3673;52.480;13.348;2023-04-03T01:00:54;102604.84;;;7.75;43.12
7264;BME280;3673;52.480;13.348;2023-04-03T01:03:23;102597.69;;;7.92;42.58
7264;BME280;3673;52.480;13.348;2023-04-03T01:05:50;102604.84;;;7.75;43.20
7264;BME280;3673;52.480;13.348;2023-04-03T01:08:17;102608.09;;;7.49;43.60
7264;BME280;3673;52.480;13.348;2023-04-03T01:10:44;102607.28;;;7.50;43.45
7264;BME280;3673;52.480;13.348;2023-04-03T01:13:22;102612.53;;;7.72;43.14
7264;BME280;3673;52.480;13.348;2023-04-03T01:15:49;102603.72;;;7.69;43.55
7264;BME280;3673;52.480;13.348;2023-04-03T01:18:17;102605.88;;;7.58;43.91
7264;BME280;3673;52.480;13.348;2023-04-03T01:21:14;102610.06;;;7.75;42.99
7264;BME280;3673;52.480;13.348;2023-04-03T01:24:02;102607.56;;;7.78;43.25
7264;BME280;3673;52.480;13.348;2023-04-03T01:26:33;102612.81;;;7.37;43.68
7264;BME280;3673;52.480;13.348;2023-04-03T01:29:01;102616.94;;;7.53;43.92
7264;BME280;3673;52.480;13.348;2023-04-03T01:31:40;102610.63;;;7.68;43.70
7264;BME280;3673;52.480;13.348;2023-04-03T01:34:07;102622.31;;;7.57;43.64
7264;BME280;3673;52.480;13.348;2023-04-03T01:36:34;102619.81;;;7.19;44.22
7264;BME280;3673;52.480;13.348;2023-04-03T01:39:01;102626.22;;;7.46;43.66
7264;BME280;3673;52.480;13.348;2023-04-03T01:41:28;102619.66;;;7.35;43.94
7264;BME280;3673;52.480;13.348;2023-04-03T01:43:55;102616.81;;;7.50;43.72
7264;BME280;3673;52.480;13.348;2023-04-03T01:46:22;102626.91;;;7.42;43.95
7264;BME280;3673;52.480;13.348;2023-04-03T01:48:50;102630.00;;;7.54;43.70
7264;BME280;3673;52.480;13.348;2023-04-03T01:51:17;102626.00;;;7.62;43.74
7264;BME280;3673;52.480;13.348;2023-04-03T01:53:43;102630.97;;;7.77;43.65
7264;BME280;3673;52.480;13.348;2023-04-03T01:56:10;102626.22;;;7.46;43.91
7264;BME280;3673;52.480;13.348;2023-04-03T01:58:37;102632.88;;;7.60;43.94
7264;BME280;3673;52.480;13.348;2023-04-03T02:01:04;102628.78;;;7.88;43.54
7264;BME280;3673;52.480;13.348;2023-04-03T02:03:31;102635.28;;;7.76;43.77
7264;BME280;3673;52.480;13.348;2023-04-03T02:06:00;102644.69;;;7.73;43.61
7264;BME280;3673;52.480;13.348;2023-04-03T02:08:27;102631.88;;;7.57;43.99
7264;BME280;3673;52.480;13.348;2023-04-03T02:10:54;102648.78;;;7.47;44.29
7264;BME280;3673;52.480;13.348;2023-04-03T02:13:20;102646.59;;;7.36;44.42
7264;BME280;3673;52.480;13.348;2023-04-03T02:15:47;102635.53;;;7.41;44.67
7264;BME280;3673;52.480;13.348;2023-04-03T02:18:14;102640.19;;;7.69;44.01
7264;BME280;3673;52.480;13.348;2023-04-03T02:20:41;102637.00;;;7.55;44.55
7264;BME280;3673;52.480;13.348;2023-04-03T02:23:09;102632.81;;;7.59;44.56
7264;BME280;3673;52.480;13.348;2023-04-03T02:25:36;102642.41;;;7.39;44.71
7264;BME280;3673;52.480;13.348;2023-04-03T02:28:03;102634.34;;;7.54;44.65
7264;BME280;3673;52.480;13.348;2023-04-03T02:30:30;102634.59;;;7.60;44.74
7264;BME280;3673;52.480;13.348;2023-04-03T02:32:57;102643.53;;;7.46;44.62
7264;BME280;3673;52.480;13.348;2023-04-03T02:35:29;102642.28;;;7.57;44.86
7264;BME280;3673;52.480;13.348;2023-04-03T02:37:56;102652.88;;;7.61;44.59
7264;BME280;3673;52.480;13.348;2023-04-03T02:40:24;102657.06;;;7.37;44.84
7264;BME280;3673;52.480;13.348;2023-04-03T02:42:51;102662.97;;;7.33;44.86
7264;BME280;3673;52.480;13.348;2023-04-03T02:45:18;102664.50;;;7.49;44.76
7264;BME280;3673;52.480;13.348;2023-04-03T02:47:44;102667.31;;;7.53;44.64
7264;BME280;3673;52.480;13.348;2023-04-03T02:50:11;102664.75;;;7.55;44.46
7264;BME280;3673;52.480;13.348;2023-04-03T02:52:38;102678.22;;;7.45;44.60
7264;BME280;3673;52.480;13.348;2023-04-03T02:55:06;102669.63;;;7.47;44.89
7264;BME280;3673;52.480;13.348;2023-04-03T02:57:34;102675.16;;;7.55;44.87
7264;BME280;3673;52.480;13.348;2023-04-03T03:00:01;102669.97;;;7.55;44.75
7264;BME280;3673;52.480;13.348;2023-04-03T03:02:28;102677.69;;;7.33;45.25
7264;BME280;3673;52.480;13.348;2023-04-03T03:04:55;102679.31;;;7.50;45.03
7264;BME280;3673;52.480;13.348;2023-04-03T03:07:22;102676.13;;;7.36;45.26
7264;BME280;3673;52.480;13.348;2023-04-03T03:09:48;102677.13;;;7.40;45.25
7264;BME280;3673;52.480;13.348;2023-04-03T03:12:15;102675.72;;;7.27;45.69
7264;BME280;3673;52.480;13.348;2023-04-03T03:14:48;102677.59;;;7.10;45.77
7264;BME280;3673;52.480;13.348;2023-04-03T03:17:15;102681.63;;;7.23;45.45
7264;BME280;3673;52.480;13.348;2023-04-03T03:19:42;102687.16;;;7.11;45.83
7264;BME280;3673;52.480;13.348;2023-04-03T03:22:09;102696.00;;;7.15;45.67
7264;BME280;3673;52.480;13.348;2023-04-03T03:24:35;102691.06;;;7.02;45.70
7264;BME280;3673;52.480;13.348;2023-04-03T03:27:02;102685.84;;;7.21;45.42
7264;BME280;3673;52.480;13.348;2023-04-03T03:29:29;102689.47;;;7.24;45.54
7264;BME280;3673;52.480;13.348;2023-04-03T03:31:57;102690.94;;;6.99;45.73
7264;BME280;3673;52.480;13.348;2023-04-03T03:34:24;102693.38;;;7.34;45.32
7264;BME280;3673;52.480;13.348;2023-04-03T03:36:50;102697.38;;;7.26;45.31
7264;BME280;3673;52.480;13.348;2023-04-03T03:39:17;102690.66;;;7.12;45.91
7264;BME280;3673;52.480;13.348;2023-04-03T03:41:44;102695.22;;;7.17;45.67
7264;BME280;3673;52.480;13.348;2023-04-03T03:44:11;102694.56;;;7.02;45.98
7264;BME280;3673;52.480;13.348;2023-04-03T03:46:37;102697.56;;;7.11;45.73
7264;BME280;3673;52.480;13.348;2023-04-03T03:49:06;102696.53;;;7.08;45.78
7264;BME280;3673;52.480;13.348;2023-04-03T03:51:32;102697.50;;;7.29;45.75
7264;BME280;3673;52.480;13.348;2023-04-03T03:53:59;102701.97;;;7.12;45.76
7264;BME280;3673;52.480;13.348;2023-04-03T03:56:26;102699.13;;;7.08;45.67
7264;BME280;3673;52.480;13.348;2023-04-03T03:58:53;102694.84;;;7.08;46.10
7264;BME280;3673;52.480;13.348;2023-04-03T04:01:22;102695.47;;;7.03;46.08
7264;BME280;3673;52.480;13.348;2023-04-03T04:03:49;102698.59;;;6.96;46.24
7264;BME280;3673;52.480;13.348;2023-04-03T04:06:17;102689.00;;;7.14;46.15
7264;BME280;3673;52.480;13.348;2023-04-03T04:08:43;102698.50;;;6.75;46.54
7264;BME280;3673;52.480;13.348;2023-04-03T04:11:10;102695.84;;;7.12;46.04
7264;BME280;3673;52.480;13.348;2023-04-03T04:13:37;102694.34;;;6.98;45.90
7264;BME280;3673;52.480;13.348;2023-04-03T04:16:05;102695.81;;;7.10;45.87
7264;BME280;3673;52.480;13.348;2023-04-03T04:18:31;102691.34;;;6.89;46.49
7264;BME280;3673;52.480;13.348;2023-04-03T04:20:58;102701.13;;;6.94;46.25
7264;BME280;3673;52.480;13.348;2023-04-03T04:23:26;102702.28;;;7.01;46.50
7264;BME280;3673;52.480;13.348;2023-04-03T04:25:53;102696.41;;;6.86;46.62
7264;BME280;3673;52.480;13.348;2023-04-03T04:28:20;102695.28;;;6.61;47.51
7264;BME280;3673;52.480;13.348;2023-04-03T04:30:46;102695.16;;;6.41;47.73
7264;BME280;3673;52.480;13.348;2023-04-03T04:33:13;102700.88;;;6.70;47.31
7264;BME280;3673;52.480;13.348;2023-04-03T04:35:42;102694.06;;;6.72;47.06
7264;BME280;3673;52.480;13.348;2023-04-03T04:38:09;102707.34;;;6.79;47.23
7264;BME280;3673;52.480;13.348;2023-04-03T04:40:37;102711.13;;;6.85;47.12
7264;BME280;3673;52.480;13.348;2023-04-03T04:43:04;102703.09;;;6.81;46.81
7264;BME280;3673;52.480;13.348;2023-04-03T04:45:30;102715.16;;;6.79;47.02
7264;BME280;3673;52.480;13.348;2023-04-03T04:47:57;102705.13;;;6.86;47.26
7264;BME280;3673;52.480;13.348;2023-04-03T04:50:24;102711.66;;;6.78;47.31
7264;BME280;3673;52.480;13.348;2023-04-03T04:52:51;102720.31;;;6.77;47.41
7264;BME280;3673;52.480;13.348;2023-04-03T04:55:17;102719.38;;;7.13;46.69
7264;BME280;3673;52.480;13.348;2023-04-03T04:57:46;102723.69;;;7.13;46.81
7264;BME280;3673;52.480;13.348;2023-04-03T05:00:14;102725.03;;;6.86;47.34
7264;BME280;3673;52.480;13.348;2023-04-03T05:02:41;102720.00;;;6.71;47.45
7264;BME280;3673;52.480;13.348;2023-04-03T05:05:08;102722.66;;;6.90;47.13
7264;BME280;3673;52.480;13.348;2023-04-03T05:07:35;102721.94;;;6.75;47.48
7264;BME280;3673;52.480;13.348;2023-04-03T05:10:03;102725.84;;;7.04;47.47
7264;BME280;3673;52.480;13.348;2023-04-03T05:12:30;102729.13;;;6.81;47.22
7264;BME280;3673;52.480;13.348;2023-04-03T05:14:58;102728.38;;;6.83;47.07
7264;BME280;3673;52.480;13.348;2023-04-03T05:17:24;102728.81;;;6.92;47.11
7264;BME280;3673;52.480;13.348;2023-04-03T05:19:51;102736.22;;;6.48;48.00
7264;BME280;3673;52.480;13.348;2023-04-03T05:22:18;102737.13;;;6.31;48.45
7264;BME280;3673;52.480;13.348;2023-04-03T05:24:44;102735.97;;;6.79;47.75
7264;BME280;3673;52.480;13.348;2023-04-03T05:27:11;102736.88;;;6.79;47.54
7264;BME280;3673;52.480;13.348;2023-04-03T05:29:38;102735.78;;;6.93;47.10
7264;BME280;3673;52.480;13.348;2023-04-03T05:32:10;102730.06;;;7.00;47.49
7264;BME280;3673;52.480;13.348;2023-04-03T05:34:37;102739.63;;;7.20;46.90
7264;BME280;3673;52.480;13.348;2023-04-03T05:37:04;102741.81;;;6.92;47.21
7264;BME280;3673;52.480;13.348;2023-04-03T05:39:30;102748.50;;;6.87;47.24
7264;BME280;3673;52.480;13.348;2023-04-03T05:41:57;102748.41;;;7.03;46.97
7264;BME280;3673;52.480;13.348;2023-04-03T05:44:24;102746.63;;;7.02;46.80
7264;BME280;3673;52.480;13.348;2023-04-03T05:46:51;102751.88;;;7.04;47.07
7264;BME280;3673;52.480;13.348;2023-04-03T05:49:19;102754.28;;;7.18;46.30
7264;BME280;3673;52.480;13.348;2023-04-03T05:51:46;102754.28;;;7.18;46.67
7264;BME280;3673;52.480;13.348;2023-04-03T05:54:17;102746.75;;;7.24;46.60
7264;BME280;3673;52.480;13.348;2023-04-03T05:56:45;102756.53;;;6.92;46.88
7264;BME280;3673;52.480;13.348;2023-04-03T05:59:11;102754.69;;;6.89;47.07
7264;BME280;3673;52.480;13.348;2023-04-03T06:01:38;102768.19;;;7.00;46.94
7264;BME280;3673;52.480;13.348;2023-04-03T06:04:05;102762.44;;;7.07;46.47
7264;BME280;3673;52.480;13.348;2023-04-03T06:06:47;102760.25;;;7.16;46.21
7264;BME280;3673;52.480;13.348;2023-04-03T06:09:15;102761.63;;;6.71;47.42
7264;BME280;3673;52.480;13.348;2023-04-03T06:11:42;102772.19;;;7.30;47.48
7264;BME280;3673;52.480;13.348;2023-04-03T06:14:10;102771.56;;;7.16;46.13
7264;BME280;3673;52.480;13.348;2023-04-03T06:16:37;102769.22;;;7.03;45.94
7264;BME280;3673;52.480;13.348;2023-04-03T06:19:04;102780.13;;;7.33;45.90
7264;BME280;3673;52.480;13.348;2023-04-03T06:21:31;102774.22;;;7.18;45.66
7264;BME280;3673;52.480;13.348;2023-04-03T06:23:59;102777.84;;;7.02;49.59
7264;BME280;3673;52.480;13.348;2023-04-03T06:26:26;102775.63;;;6.92;46.03
7264;BME280;3673;52.480;13.348;2023-04-03T06:28:53;102779.50;;;7.19;45.84
7264;BME280;3673;52.480;13.348;2023-04-03T06:31:19;102772.47;;;7.17;45.91
7264;BME280;3673;52.480;13.348;2023-04-03T06:33:46;102770.72;;;6.98;45.86
7264;BME280;3673;52.480;13.348;2023-04-03T06:36:13;102777.09;;;7.05;45.66
7264;BME280;3673;52.480;13.348;2023-04-03T06:38:40;102778.75;;;7.41;44.70
7264;BME280;3673;52.480;13.348;2023-04-03T06:41:08;102776.06;;;7.59;44.09
7264;BME280;3673;52.480;13.348;2023-04-03T06:43:35;102781.03;;;7.34;44.56
7264;BME280;3673;52.480;13.348;2023-04-03T06:46:02;102781.13;;;7.17;43.57
7264;BME280;3673;52.480;13.348;2023-04-03T06:48:29;102788.69;;;7.50;43.67
7264;BME280;3673;52.480;13.348;2023-04-03T06:50:56;102791.69;;;7.59;43.21
7264;BME280;3673;52.480;13.348;2023-04-03T06:53:23;102799.13;;;7.90;42.93
7264;BME280;3673;52.480;13.348;2023-04-03T06:55:50;102789.34;;;7.65;43.61
7264;BME280;3673;52.480;13.348;2023-04-03T06:58:18;102803.44;;;7.89;42.84
7264;BME280;3673;52.480;13.348;2023-04-03T07:00:45;102809.16;;;7.61;42.82
7264;BME280;3673;52.480;13.348;2023-04-03T07:03:12;102809.22;;;7.82;42.31
7264;BME280;3673;52.480;13.348;2023-04-03T07:05:39;102802.34;;;7.84;42.28
7264;BME280;3673;52.480;13.348;2023-04-03T07:08:08;102810.59;;;7.74;42.65
7264;BME280;3673;52.480;13.348;2023-04-03T07:10:35;102813.16;;;7.72;41.96
7264;BME280;3673;52.480;13.348;2023-04-03T07:13:01;102813.25;;;7.95;41.62
7264;BME280;3673;52.480;13.348;2023-04-03T07:15:29;102814.47;;;8.03;41.05
7264;BME280;3673;52.480;13.348;2023-04-03T07:17:56;102815.28;;;8.02;40.91
7264;BME280;3673;52.480;13.348;2023-04-03T07:20:23;102818.38;;;7.53;40.21
7264;BME280;3673;52.480;13.348;2023-04-03T07:22:50;102813.56;;;8.02;39.96
7264;BME280;3673;52.480;13.348;2023-04-03T07:25:17;102828.53;;;8.06;39.75
7264;BME280;3673;52.480;13.348;2023-04-03T07:27:43;102816.94;;;8.40;38.38
7264;BME280;3673;52.480;13.348;2023-04-03T07:30:12;102816.38;;;8.69;37.99
7264;BME280;3673;52.480;13.348;2023-04-03T07:32:41;102827.47;;;8.63;37.94
7264;BME280;3673;52.480;13.348;2023-04-03T07:35:08;102815.34;;;8.86;36.99
7264;BME280;3673;52.480;13.348;2023-04-03T07:37:35;102833.16;;;8.96;37.34
7264;BME280;3673;52.480;13.348;2023-04-03T07:40:02;102829.06;;;9.03;36.89
7264;BME280;3673;52.480;13.348;2023-04-03T07:42:30;102826.13;;;8.95;36.68
7264;BME280;3673;52.480;13.348;2023-04-03T07:44:57;102830.06;;;9.06;35.99
7264;BME280;3673;52.480;13.348;2023-04-03T07:47:24;102820.31;;;9.02;36.30
7264;BME280;3673;52.480;13.348;2023-04-03T07:49:53;102827.75;;;9.14;36.17
7264;BME280;3673;52.480;13.348;2023-04-03T07:52:19;102835.41;;;8.87;36.00
7264;BME280;3673;52.480;13.348;2023-04-03T07:54:46;102833.06;;;8.95;36.48
7264;BME280;3673;52.480;13.348;2023-04-03T07:57:13;102833.25;;;8.77;36.47
7264;BME280;3673;52.480;13.348;2023-04-03T07:59:40;102833.97;;;8.95;35.93
7264;BME280;3673;52.480;13.348;2023-04-03T08:02:09;102834.38;;;8.84;36.45
7264;BME280;3673;52.480;13.348;2023-04-03T08:04:36;102836.06;;;8.61;36.86
7264;BME280;3673;52.480;13.348;2023-04-03T08:07:04;102827.41;;;8.62;37.15
7264;BME280;3673;52.480;13.348;2023-04-03T08:09:31;102836.72;;;9.20;36.74
7264;BME280;3673;52.480;13.348;2023-04-03T08:11:58;102829.13;;;8.61;36.30
7264;BME280;3673;52.480;13.348;2023-04-03T08:14:25;102824.50;;;9.21;35.61
7264;BME280;3673;52.480;13.348;2023-04-03T08:16:52;102827.94;;;9.42;35.66
7264;BME280;3673;52.480;13.348;2023-04-03T08:19:18;102834.44;;;9.29;35.70
7264;BME280;3673;52.480;13.348;2023-04-03T08:21:45;102826.44;;;8.81;35.41
7264;BME280;3673;52.480;13.348;2023-04-03T08:24:13;102837.34;;;8.70;36.36
7264;BME280;3673;52.480;13.348;2023-04-03T08:26:40;102838.19;;;8.71;36.11
7264;BME280;3673;52.480;13.348;2023-04-03T08:29:07;102827.09;;;8.54;36.59
7264;BME280;3673;52.480;13.348;2023-04-03T08:31:34;102834.50;;;8.44;36.36
7264;BME280;3673;52.480;13.348;2023-04-03T08:34:00;102822.34;;;8.87;36.19
7264;BME280;3673;52.480;13.348;2023-04-03T08:36:29;102828.25;;;9.27;35.80
7264;BME280;3673;52.480;13.348;2023-04-03T08:38:56;102827.59;;;9.11;35.91
7264;BME280;3673;52.480;13.348;2023-04-03T08:41:32;102829.06;;;9.03;35.95
7264;BME280;3673;52.480;13.348;2023-04-03T08:44:10;102822.00;;;9.00;34.98
7264;BME280;3673;52.480;13.348;2023-04-03T08:46:52;102826.41;;;9.25;35.13
7264;BME280;3673;52.480;13.348;2023-04-03T08:49:26;102826.13;;;9.40;34.87
7264;BME280;3673;52.480;13.348;2023-04-03T08:51:55;102817.41;;;9.17;35.10
7264;BME280;3673;52.480;13.348;2023-04-03T08:54:28;102818.44;;;9.20;34.19
7264;BME280;3673;52.480;13.348;2023-04-03T08:57:00;102832.75;;;9.31;34.12
7264;BME280;3673;52.480;13.348;2023-04-03T08:59:32;102819.28;;;9.21;34.63
7264;BME280;3673;52.480;13.348;2023-04-03T09:02:04;102833.88;;;9.38;34.43
7264;BME280;3673;52.480;13.348;2023-04-03T09:04:39;102820.97;;;8.97;35.76
7264;BME280;3673;52.480;13.348;2023-04-03T09:07:13;102819.91;;;8.92;35.64
7264;BME280;3673;52.480;13.348;2023-04-03T09:09:43;102814.63;;;8.90;35.38
7264;BME280;3673;52.480;13.348;2023-04-03T09:12:18;102820.22;;;9.45;34.75
7264;BME280;3673;52.480;13.348;2023-04-03T09:14:55;102827.84;;;9.87;33.88
7264;BME280;3673;52.480;13.348;2023-04-03T09:17:37;102817.78;;;10.22;33.08
7264;BME280;3673;52.480;13.348;2023-04-03T09:20:17;102821.19;;;10.20;32.76
7264;BME280;3673;52.480;13.348;2023-04-03T09:22:44;102815.28;;;10.25;31.65
7264;BME280;3673;52.480;13.348;2023-04-03T09:25:15;102818.09;;;10.31;31.32
7264;BME280;3673;52.480;13.348;2023-04-03T09:27:43;102817.69;;;9.70;31.92
7264;BME280;3673;52.480;13.348;2023-04-03T09:30:14;102810.13;;;10.54;30.69
7264;BME280;3673;52.480;13.348;2023-04-03T09:32:44;102798.94;;;10.32;30.64
7264;BME280;3673;52.480;13.348;2023-04-03T09:35:23;102811.25;;;10.62;30.03
7264;BME280;3673;52.480;13.348;2023-04-03T09:37:52;102814.81;;;10.37;30.15
7264;BME280;3673;52.480;13.348;2023-04-03T09:40:35;102815.56;;;10.61;30.46
7264;BME280;3673;52.480;13.348;2023-04-03T09:43:23;102816.03;;;10.75;29.52
7264;BME280;3673;52.480;13.348;2023-04-03T09:45:51;102813.75;;;10.85;29.16
7264;BME280;3673;52.480;13.348;2023-04-03T09:48:21;102810.66;;;10.99;29.43
7264;BME280;3673;52.480;13.348;2023-04-03T09:51:00;102807.25;;;10.73;29.00
7264;BME280;3673;52.480;13.348;2023-04-03T09:53:35;102807.50;;;10.03;30.13
7264;BME280;3673;52.480;13.348;2023-04-03T09:56:09;102810.84;;;9.74;30.81
7264;BME280;3673;52.480;13.348;2023-04-03T09:58:48;102806.25;;;9.92;31.29
7264;BME280;3673;52.480;13.348;2023-04-03T10:01:26;102815.91;;;9.95;31.54
7264;BME280;3673;52.480;13.348;2023-04-03T10:04:10;102825.16;;;9.61;31.79
7264;BME280;3673;52.480;13.348;2023-04-03T10:06:39;102816.19;;;10.02;32.00
7264;BME280;3673;52.480;13.348;2023-04-03T10:09:19;102799.53;;;10.24;31.52
7264;BME280;3673;52.480;13.348;2023-04-03T10:12:03;102794.34;;;10.52;31.33
7264;BME280;3673;52.480;13.348;2023-04-03T10:14:35;102802.28;;;10.54;30.82
7264;BME280;3673;52.480;13.348;2023-04-03T10:17:13;102798.13;;;10.89;31.16
7264;BME280;3673;52.480;13.348;2023-04-03T10:19:46;102802.09;;;10.76;30.92
7264;BME280;3673;52.480;13.348;2023-04-03T10:22:21;102796.31;;;10.32;31.42
7264;BME280;3673;52.480;13.348;2023-04-03T10:25:03;102797.97;;;11.12;30.70
7264;BME280;3673;52.480;13.348;2023-04-03T10:27:42;102797.84;;;11.37;30.25
7264;BME280;3673;52.480;13.348;2023-04-03T10:30:26;102784.28;;;11.51;29.51
7264;BME280;3673;52.480;13.348;2023-04-03T10:33:08;102780.44;;;11.40;30.27
7264;BME280;3673;52.480;13.348;2023-04-03T10:35:46;102789.38;;;11.46;29.87
7264;BME280;3673;52.480;13.348;2023-04-03T10:38:21;102771.59;;;11.36;29.41
7264;BME280;3673;52.480;13.348;2023-04-03T10:40:57;102769.72;;;11.01;29.18
7264;BME280;3673;52.480;13.348;2023-04-03T10:43:35;102772.28;;;11.29;29.02
7264;BME280;3673;52.480;13.348;2023-04-03T10:46:09;102764.94;;;11.78;28.84
7264;BME280;3673;52.480;13.348;2023-04-03T10:48:57;102776.28;;;11.48;28.15
7264;BME280;3673;52.480;13.348;2023-04-03T10:51:33;102775.66;;;11.56;27.91
7264;BME280;3673;52.480;13.348;2023-04-03T10:54:08;102768.09;;;11.67;28.06
7264;BME280;3673;52.480;13.348;2023-04-03T10:56:40;102763.47;;;12.22;27.78
7264;BME280;3673;52.480;13.348;2023-04-03T10:59:18;102759.59;;;12.43;27.52
7264;BME280;3673;52.480;13.348;2023-04-03T11:01:52;102758.22;;;12.22;26.98
7264;BME280;3673;52.480;13.348;2023-04-03T11:04:25;102748.69;;;11.92;27.79
7264;BME280;3673;52.480;13.348;2023-04-03T11:07:00;102746.94;;;11.92;27.55
7264;BME280;3673;52.480;13.348;2023-04-03T11:09:30;102738.94;;;12.22;28.01
7264;BME280;3673;52.480;13.348;2023-04-03T11:12:04;102743.63;;;11.68;28.46
7264;BME280;3673;52.480;13.348;2023-04-03T11:14:33;102731.47;;;12.38;28.26
7264;BME280;3673;52.480;13.348;2023-04-03T11:17:19;102743.78;;;12.41;28.04
7264;BME280;3673;52.480;13.348;2023-04-03T11:19:57;102747.78;;;12.24;28.00
7264;BME280;3673;52.480;13.348;2023-04-03T11:22:32;102737.63;;;11.39;28.50
7264;BME280;3673;52.480;13.348;2023-04-03T11:25:08;102752.63;;;11.45;29.26
7264;BME280;3673;52.480;13.348;2023-04-03T11:27:45;102738.03;;;11.23;29.58
7264;BME280;3673;52.480;13.348;2023-04-03T11:30:19;102728.56;;;11.28;29.30
7264;BME280;3673;52.480;13.348;2023-04-03T11:33:20;102734.34;;;10.87;30.00
7264;BME280;3673;52.480;13.348;2023-04-03T11:35:51;102720.69;;;10.97;30.20
7264;BME280;3673;52.480;13.348;2023-04-03T11:38:23;102726.28;;;11.40;29.88
7264;BME280;3673;52.480;13.348;2023-04-03T11:40:53;102726.34;;;11.12;30.42
7264;BME280;3673;52.480;13.348;2023-04-03T11:43:26;102717.34;;;11.65;29.91
7264;BME280;3673;52.480;13.348;2023-04-03T11:45:57;102732.16;;;11.00;30.26
7264;BME280;3673;52.480;13.348;2023-04-03T11:48:49;102730.78;;;10.84;30.21
7264;BME280;3673;52.480;13.348;2023-04-03T11:51:42;102735.72;;;11.33;29.99
7264;BME280;3673;52.480;13.348;2023-04-03T11:54:45;102729.44;;;11.27;30.68
7264;BME280;3673;52.480;13.348;2023-04-03T11:58:10;102738.25;;;11.62;30.18
7264;BME280;3673;52.480;13.348;2023-04-03T12:01:09;102728.88;;;11.38;29.60
7264;BME280;3673;52.480;13.348;2023-04-03T12:04:08;102723.91;;;11.49;29.36
7264;BME280;3673;52.480;13.348;2023-04-03T12:07:13;102724.16;;;11.91;29.60
7264;BME280;3673;52.480;13.348;2023-04-03T12:10:16;102730.00;;;11.48;30.62
7264;BME280;3673;52.480;13.348;2023-04-03T12:12:56;102725.34;;;11.69;30.06
7264;BME280;3673;52.480;13.348;2023-04-03T12:15:57;102724.19;;;10.97;31.09
7264;BME280;3673;52.480;13.348;2023-04-03T12:18:41;102739.34;;;11.07;31.45
7264;BME280;3673;52.480;13.348;2023-04-03T12:21:11;102730.75;;;10.83;31.12
7264;BME280;3673;52.480;13.348;2023-04-03T12:24:00;102727.00;;;11.03;31.18
7264;BME280;3673;52.480;13.348;2023-04-03T12:26:33;102723.03;;;11.17;30.34
7264;BME280;3673;52.480;13.348;2023-04-03T12:29:07;102725.69;;;11.19;31.11
7264;BME280;3673;52.480;13.348;2023-04-03T12:31:42;102726.75;;;11.25;31.02
7264;BME280;3673;52.480;13.348;2023-04-03T12:34:24;102712.75;;;11.25;30.95
7264;BME280;3673;52.480;13.348;2023-04-03T12:37:03;102716.91;;;11.17;31.59
7264;BME280;3673;52.480;13.348;2023-04-03T12:39:55;102717.22;;;10.41;32.34
7264;BME280;3673;52.480;13.348;2023-04-03T12:42:52;102723.34;;;10.98;31.86
7264;BME280;3673;52.480;13.348;2023-04-03T12:45:24;102722.47;;;10.69;31.87
7264;BME280;3673;52.480;13.348;2023-04-03T12:47:53;102716.53;;;10.75;32.36
7264;BME280;3673;52.480;13.348;2023-04-03T12:50:24;102713.22;;;11.10;31.80
7264;BME280;3673;52.480;13.348;2023-04-03T12:53:04;102721.34;;;10.61;31.43
7264;BME280;3673;52.480;13.348;2023-04-03T12:55:32;102715.06;;;10.84;31.06
7264;BME280;3673;52.480;13.348;2023-04-03T12:58:15;102702.28;;;11.25;30.92
7264;BME280;3673;52.480;13.348;2023-04-03T13:00:43;102702.56;;;11.68;29.59
7264;BME280;3673;52.480;13.348;2023-04-03T13:03:24;102694.03;;;11.74;29.29
7264;BME280;3673;52.480;13.348;2023-04-03T13:05:53;102703.13;;;11.88;29.22
7264;BME280;3673;52.480;13.348;2023-04-03T13:08:22;102697.66;;;11.48;29.88
7264;BME280;3673;52.480;13.348;2023-04-03T13:10:56;102689.53;;;11.70;29.32
7264;BME280;3673;52.480;13.348;2023-04-03T13:13:24;102694.69;;;11.67;29.76
7264;BME280;3673;52.480;13.348;2023-04-03T13:15:52;102684.06;;;11.61;29.85
7264;BME280;3673;52.480;13.348;2023-04-03T13:18:29;102697.97;;;11.27;30.18
7264;BME280;3673;52.480;13.348;2023-04-03T13:21:03;102702.41;;;11.29;30.33
7264;BME280;3673;52.480;13.348;2023-04-03T13:23:36;102698.00;;;11.28;30.05
7264;BME280;3673;52.480;13.348;2023-04-03T13:26:05;102690.38;;;11.37;30.89
7264;BME280;3673;52.480;13.348;2023-04-03T13:28:34;102689.75;;;11.13;30.29